Amherst, Nebraska
Current Conditions -  °F | °C
As of 11:15 AM on Friday 31 Oct 2014 (Local Time) from KEAR Reporting Station
Clear Clear  
Wind Chill: 26°   Ceiling: Unl
Heat Index: 32°   Visibility: 10mi
Dew Point: 18°   Wind: 6mph
Humidity: 55%   Direction: 30°NNE
Pressure: 30.57"   Gusts: NA
Location:  40.77°N, 99.27°W
Report Text: KEAR 311615Z 03005KT 10SM CLR 00/M08 A3057 RMK AO1
Loading
Personal Weather Stations






























Interactive Weather Map
Tropical Storm Tracking
New forecast layout! Learn more

10-Day Weather Forecast

Advertisements
Track Severe Weather on mobile